sensor_id;sensor_type;location;lat;lon;timestamp;P1;durP1;ratioP1;P2;durP2;ratioP2
12367;SDS011;6248;49.812;6.620;2022-12-15T00:01:35;27.53;;;16.77;;
12367;SDS011;6248;49.812;6.620;2022-12-15T00:04:19;27.50;;;17.03;;
12367;SDS011;6248;49.812;6.620;2022-12-15T00:07:04;24.10;;;15.00;;
12367;SDS011;6248;49.812;6.620;2022-12-15T00:09:49;34.23;;;18.03;;
12367;SDS011;6248;49.812;6.620;2022-12-15T00:12:33;28.77;;;17.27;;
12367;SDS011;6248;49.812;6.620;2022-12-15T00:15:19;22.03;;;14.63;;
12367;SDS011;6248;49.812;6.620;2022-12-15T00:18:04;22.13;;;15.00;;
12367;SDS011;6248;49.812;6.620;2022-12-15T00:20:49;20.93;;;14.17;;
12367;SDS011;6248;49.812;6.620;2022-12-15T00:23:34;18.70;;;13.87;;
12367;SDS011;6248;49.812;6.620;2022-12-15T00:26:19;19.37;;;13.23;;
12367;SDS011;6248;49.812;6.620;2022-12-15T00:29:04;16.93;;;12.40;;
12367;SDS011;6248;49.812;6.620;2022-12-15T00:31:50;16.93;;;11.43;;
12367;SDS011;6248;49.812;6.620;2022-12-15T00:34:35;17.17;;;11.70;;
12367;SDS011;6248;49.812;6.620;2022-12-15T00:37:19;16.40;;;11.77;;
12367;SDS011;6248;49.812;6.620;2022-12-15T00:40:04;15.13;;;11.30;;
12367;SDS011;6248;49.812;6.620;2022-12-15T00:42:32;16.77;;;11.70;;
12367;SDS011;6248;49.812;6.620;2022-12-15T00:44:59;16.47;;;11.23;;
12367;SDS011;6248;49.812;6.620;2022-12-15T00:47:30;15.77;;;11.47;;
12367;SDS011;6248;49.812;6.620;2022-12-15T00:49:56;16.00;;;11.43;;
12367;SDS011;6248;49.812;6.620;2022-12-15T00:52:41;14.37;;;10.67;;
12367;SDS011;6248;49.812;6.620;2022-12-15T00:55:26;12.57;;;9.83;;
12367;SDS011;6248;49.812;6.620;2022-12-15T00:58:11;15.10;;;10.47;;
12367;SDS011;6248;49.812;6.620;2022-12-15T01:00:55;16.30;;;10.90;;
12367;SDS011;6248;49.812;6.620;2022-12-15T01:03:42;15.63;;;11.40;;
12367;SDS011;6248;49.812;6.620;2022-12-15T01:06:26;15.37;;;10.93;;
12367;SDS011;6248;49.812;6.620;2022-12-15T01:09:12;15.17;;;10.70;;
12367;SDS011;6248;49.812;6.620;2022-12-15T01:11:57;14.33;;;11.07;;
12367;SDS011;6248;49.812;6.620;2022-12-15T01:14:41;15.30;;;11.07;;
12367;SDS011;6248;49.812;6.620;2022-12-15T01:17:26;15.80;;;10.87;;
12367;SDS011;6248;49.812;6.620;2022-12-15T01:20:12;14.20;;;10.53;;
12367;SDS011;6248;49.812;6.620;2022-12-15T01:22:43;16.20;;;11.30;;
12367;SDS011;6248;49.812;6.620;2022-12-15T01:25:11;14.87;;;10.73;;
12367;SDS011;6248;49.812;6.620;2022-12-15T01:27:38;13.87;;;10.07;;
12367;SDS011;6248;49.812;6.620;2022-12-15T01:30:06;13.70;;;10.00;;
12367;SDS011;6248;49.812;6.620;2022-12-15T01:32:33;13.77;;;10.60;;
12367;SDS011;6248;49.812;6.620;2022-12-15T01:35:01;12.77;;;9.73;;
12367;SDS011;6248;49.812;6.620;2022-12-15T01:37:29;14.53;;;10.00;;
12367;SDS011;6248;49.812;6.620;2022-12-15T01:39:56;13.30;;;9.47;;
12367;SDS011;6248;49.812;6.620;2022-12-15T01:42:41;13.30;;;10.07;;
12367;SDS011;6248;49.812;6.620;2022-12-15T01:48:04;15.03;;;10.43;;
12367;SDS011;6248;49.812;6.620;2022-12-15T01:50:31;12.93;;;10.20;;
12367;SDS011;6248;49.812;6.620;2022-12-15T01:53:01;14.10;;;10.27;;
12367;SDS011;6248;49.812;6.620;2022-12-15T01:55:29;13.83;;;10.43;;
12367;SDS011;6248;49.812;6.620;2022-12-15T01:57:57;13.20;;;9.53;;
12367;SDS011;6248;49.812;6.620;2022-12-15T02:00:27;14.00;;;10.33;;
12367;SDS011;6248;49.812;6.620;2022-12-15T02:02:55;15.87;;;11.07;;
12367;SDS011;6248;49.812;6.620;2022-12-15T02:05:23;14.53;;;10.60;;
12367;SDS011;6248;49.812;6.620;2022-12-15T02:07:50;12.67;;;9.73;;
12367;SDS011;6248;49.812;6.620;2022-12-15T02:10:19;15.27;;;10.07;;
12367;SDS011;6248;49.812;6.620;2022-12-15T02:12:47;13.80;;;10.17;;
12367;SDS011;6248;49.812;6.620;2022-12-15T02:15:18;14.70;;;10.40;;
12367;SDS011;6248;49.812;6.620;2022-12-15T02:17:48;13.17;;;9.63;;
12367;SDS011;6248;49.812;6.620;2022-12-15T02:20:25;14.27;;;10.00;;
12367;SDS011;6248;49.812;6.620;2022-12-15T02:23:04;13.30;;;9.70;;
12367;SDS011;6248;49.812;6.620;2022-12-15T02:25:42;13.13;;;9.40;;
12367;SDS011;6248;49.812;6.620;2022-12-15T02:28:11;13.27;;;10.57;;
12367;SDS011;6248;49.812;6.620;2022-12-15T02:30:44;14.30;;;10.93;;
12367;SDS011;6248;49.812;6.620;2022-12-15T02:33:33;16.03;;;10.40;;
12367;SDS011;6248;49.812;6.620;2022-12-15T02:36:04;13.43;;;9.73;;
12367;SDS011;6248;49.812;6.620;2022-12-15T02:38:33;14.60;;;10.43;;
12367;SDS011;6248;49.812;6.620;2022-12-15T02:41:02;14.77;;;10.53;;
12367;SDS011;6248;49.812;6.620;2022-12-15T02:43:30;14.93;;;10.40;;
12367;SDS011;6248;49.812;6.620;2022-12-15T02:46:02;14.43;;;10.40;;
12367;SDS011;6248;49.812;6.620;2022-12-15T02:48:33;15.90;;;10.53;;
12367;SDS011;6248;49.812;6.620;2022-12-15T02:51:07;13.77;;;10.00;;
12367;SDS011;6248;49.812;6.620;2022-12-15T02:53:40;13.23;;;10.00;;
12367;SDS011;6248;49.812;6.620;2022-12-15T02:56:14;15.10;;;10.90;;
12367;SDS011;6248;49.812;6.620;2022-12-15T02:58:45;15.40;;;10.57;;
12367;SDS011;6248;49.812;6.620;2022-12-15T03:01:17;13.70;;;10.07;;
12367;SDS011;6248;49.812;6.620;2022-12-15T03:03:46;14.17;;;10.40;;
12367;SDS011;6248;49.812;6.620;2022-12-15T03:06:14;15.83;;;10.90;;
12367;SDS011;6248;49.812;6.620;2022-12-15T03:08:42;13.50;;;10.00;;
12367;SDS011;6248;49.812;6.620;2022-12-15T03:11:09;15.97;;;10.73;;
12367;SDS011;6248;49.812;6.620;2022-12-15T03:13:36;14.97;;;10.33;;
12367;SDS011;6248;49.812;6.620;2022-12-15T03:16:03;15.23;;;10.53;;
12367;SDS011;6248;49.812;6.620;2022-12-15T03:21:00;15.13;;;10.23;;
12367;SDS011;6248;49.812;6.620;2022-12-15T03:23:27;13.97;;;10.07;;
12367;SDS011;6248;49.812;6.620;2022-12-15T03:25:54;15.07;;;10.77;;
12367;SDS011;6248;49.812;6.620;2022-12-15T03:28:22;16.17;;;10.30;;
12367;SDS011;6248;49.812;6.620;2022-12-15T03:30:49;14.03;;;9.93;;
12367;SDS011;6248;49.812;6.620;2022-12-15T03:33:16;13.63;;;9.73;;
12367;SDS011;6248;49.812;6.620;2022-12-15T03:35:44;11.47;;;9.30;;
12367;SDS011;6248;49.812;6.620;2022-12-15T03:38:12;14.10;;;9.73;;
12367;SDS011;6248;49.812;6.620;2022-12-15T03:40:39;13.97;;;10.13;;
12367;SDS011;6248;49.812;6.620;2022-12-15T03:43:07;14.97;;;10.17;;
12367;SDS011;6248;49.812;6.620;2022-12-15T03:45:34;12.73;;;9.23;;
12367;SDS011;6248;49.812;6.620;2022-12-15T03:48:01;14.83;;;10.33;;
12367;SDS011;6248;49.812;6.620;2022-12-15T03:50:28;14.07;;;10.37;;
12367;SDS011;6248;49.812;6.620;2022-12-15T03:52:56;13.40;;;9.13;;
12367;SDS011;6248;49.812;6.620;2022-12-15T03:55:25;12.67;;;8.93;;
12367;SDS011;6248;49.812;6.620;2022-12-15T03:57:53;12.00;;;9.60;;
12367;SDS011;6248;49.812;6.620;2022-12-15T04:00:20;13.20;;;9.80;;
12367;SDS011;6248;49.812;6.620;2022-12-15T04:02:48;12.90;;;9.83;;
12367;SDS011;6248;49.812;6.620;2022-12-15T04:05:16;14.53;;;9.83;;
12367;SDS011;6248;49.812;6.620;2022-12-15T04:07:43;14.13;;;10.20;;
12367;SDS011;6248;49.812;6.620;2022-12-15T04:10:11;14.20;;;10.17;;
12367;SDS011;6248;49.812;6.620;2022-12-15T04:12:39;13.53;;;10.13;;
12367;SDS011;6248;49.812;6.620;2022-12-15T04:15:07;17.17;;;11.27;;
12367;SDS011;6248;49.812;6.620;2022-12-15T04:17:35;15.47;;;10.33;;
12367;SDS011;6248;49.812;6.620;2022-12-15T04:20:02;16.37;;;11.17;;
12367;SDS011;6248;49.812;6.620;2022-12-15T04:22:35;14.60;;;9.60;;
12367;SDS011;6248;49.812;6.620;2022-12-15T04:25:02;15.67;;;10.40;;
12367;SDS011;6248;49.812;6.620;2022-12-15T04:27:49;16.57;;;11.13;;
12367;SDS011;6248;49.812;6.620;2022-12-15T04:30:33;15.17;;;10.53;;
12367;SDS011;6248;49.812;6.620;2022-12-15T04:33:18;22.03;;;13.53;;
12367;SDS011;6248;49.812;6.620;2022-12-15T04:36:04;17.87;;;11.50;;
12367;SDS011;6248;49.812;6.620;2022-12-15T04:38:49;17.67;;;11.53;;
12367;SDS011;6248;49.812;6.620;2022-12-15T04:41:33;17.30;;;10.73;;
12367;SDS011;6248;49.812;6.620;2022-12-15T04:44:20;16.37;;;11.03;;
12367;SDS011;6248;49.812;6.620;2022-12-15T04:47:05;17.53;;;11.87;;
12367;SDS011;6248;49.812;6.620;2022-12-15T04:49:49;18.93;;;12.23;;
12367;SDS011;6248;49.812;6.620;2022-12-15T04:52:34;17.80;;;11.83;;
12367;SDS011;6248;49.812;6.620;2022-12-15T04:55:19;17.50;;;11.60;;
12367;SDS011;6248;49.812;6.620;2022-12-15T04:58:04;19.43;;;12.03;;
12367;SDS011;6248;49.812;6.620;2022-12-15T05:00:50;18.63;;;11.97;;
12367;SDS011;6248;49.812;6.620;2022-12-15T05:03:35;19.27;;;12.70;;
12367;SDS011;6248;49.812;6.620;2022-12-15T05:06:20;17.67;;;12.37;;
12367;SDS011;6248;49.812;6.620;2022-12-15T05:09:05;17.97;;;11.60;;
12367;SDS011;6248;49.812;6.620;2022-12-15T05:11:50;19.93;;;12.17;;
12367;SDS011;6248;49.812;6.620;2022-12-15T05:14:34;23.40;;;12.90;;
12367;SDS011;6248;49.812;6.620;2022-12-15T05:17:21;29.23;;;13.20;;
12367;SDS011;6248;49.812;6.620;2022-12-15T05:20:06;19.17;;;12.40;;
12367;SDS011;6248;49.812;6.620;2022-12-15T05:22:53;26.97;;;12.63;;
12367;SDS011;6248;49.812;6.620;2022-12-15T05:25:38;20.93;;;11.50;;
12367;SDS011;6248;49.812;6.620;2022-12-15T05:28:23;31.90;;;11.97;;
12367;SDS011;6248;49.812;6.620;2022-12-15T05:31:08;147.47;;;15.90;;
12367;SDS011;6248;49.812;6.620;2022-12-15T05:33:54;24.73;;;11.90;;
12367;SDS011;6248;49.812;6.620;2022-12-15T05:36:21;33.43;;;13.17;;
12367;SDS011;6248;49.812;6.620;2022-12-15T05:38:49;46.93;;;13.73;;
12367;SDS011;6248;49.812;6.620;2022-12-15T05:41:16;32.40;;;14.20;;
12367;SDS011;6248;49.812;6.620;2022-12-15T05:43:44;35.47;;;13.70;;
12367;SDS011;6248;49.812;6.620;2022-12-15T05:46:11;28.80;;;13.80;;
12367;SDS011;6248;49.812;6.620;2022-12-15T05:48:38;21.50;;;13.77;;
12367;SDS011;6248;49.812;6.620;2022-12-15T05:51:08;28.83;;;13.67;;
12367;SDS011;6248;49.812;6.620;2022-12-15T05:53:35;22.80;;;13.63;;
12367;SDS011;6248;49.812;6.620;2022-12-15T05:56:03;32.80;;;14.30;;
12367;SDS011;6248;49.812;6.620;2022-12-15T05:58:31;20.77;;;13.83;;
12367;SDS011;6248;49.812;6.620;2022-12-15T06:01:02;37.37;;;13.60;;
12367;SDS011;6248;49.812;6.620;2022-12-15T06:03:30;35.40;;;13.83;;
12367;SDS011;6248;49.812;6.620;2022-12-15T06:05:57;22.83;;;12.87;;
12367;SDS011;6248;49.812;6.620;2022-12-15T06:08:26;20.70;;;12.90;;
12367;SDS011;6248;49.812;6.620;2022-12-15T06:10:53;18.87;;;12.30;;
12367;SDS011;6248;49.812;6.620;2022-12-15T06:13:20;22.40;;;13.33;;
12367;SDS011;6248;49.812;6.620;2022-12-15T06:15:54;22.30;;;13.23;;
12367;SDS011;6248;49.812;6.620;2022-12-15T06:18:22;23.13;;;13.97;;
12367;SDS011;6248;49.812;6.620;2022-12-15T06:20:55;24.27;;;13.90;;
12367;SDS011;6248;49.812;6.620;2022-12-15T06:23:22;22.23;;;14.10;;
12367;SDS011;6248;49.812;6.620;2022-12-15T06:25:51;26.13;;;13.27;;
12367;SDS011;6248;49.812;6.620;2022-12-15T06:28:18;20.93;;;13.53;;
12367;SDS011;6248;49.812;6.620;2022-12-15T06:30:48;25.70;;;14.97;;
12367;SDS011;6248;49.812;6.620;2022-12-15T06:33:15;23.53;;;14.53;;
12367;SDS011;6248;49.812;6.620;2022-12-15T06:35:42;27.10;;;16.07;;
12367;SDS011;6248;49.812;6.620;2022-12-15T06:38:09;23.93;;;13.93;;
12367;SDS011;6248;49.812;6.620;2022-12-15T06:40:36;33.63;;;14.33;;
12367;SDS011;6248;49.812;6.620;2022-12-15T06:43:05;45.13;;;13.60;;
12367;SDS011;6248;49.812;6.620;2022-12-15T06:45:32;22.53;;;13.20;;
12367;SDS011;6248;49.812;6.620;2022-12-15T06:47:59;19.20;;;13.00;;
12367;SDS011;6248;49.812;6.620;2022-12-15T06:50:27;20.53;;;12.50;;
12367;SDS011;6248;49.812;6.620;2022-12-15T06:52:54;20.50;;;12.20;;
12367;SDS011;6248;49.812;6.620;2022-12-15T06:55:21;23.10;;;13.27;;
12367;SDS011;6248;49.812;6.620;2022-12-15T06:57:48;24.70;;;14.77;;
12367;SDS011;6248;49.812;6.620;2022-12-15T07:00:17;25.53;;;13.93;;
12367;SDS011;6248;49.812;6.620;2022-12-15T07:02:44;29.13;;;13.50;;
12367;SDS011;6248;49.812;6.620;2022-12-15T07:05:11;19.30;;;12.67;;
12367;SDS011;6248;49.812;6.620;2022-12-15T07:07:39;20.27;;;13.57;;
12367;SDS011;6248;49.812;6.620;2022-12-15T07:10:06;30.93;;;13.07;;
12367;SDS011;6248;49.812;6.620;2022-12-15T07:12:34;17.63;;;12.40;;
12367;SDS011;6248;49.812;6.620;2022-12-15T07:15:02;20.67;;;13.10;;
12367;SDS011;6248;49.812;6.620;2022-12-15T07:17:30;19.53;;;13.30;;
12367;SDS011;6248;49.812;6.620;2022-12-15T07:19:57;22.77;;;13.00;;
12367;SDS011;6248;49.812;6.620;2022-12-15T07:22:26;19.67;;;12.80;;
12367;SDS011;6248;49.812;6.620;2022-12-15T07:24:53;25.93;;;15.30;;
12367;SDS011;6248;49.812;6.620;2022-12-15T07:27:20;24.30;;;14.40;;
12367;SDS011;6248;49.812;6.620;2022-12-15T07:29:48;23.30;;;12.97;;
12367;SDS011;6248;49.812;6.620;2022-12-15T07:32:15;24.57;;;11.87;;
12367;SDS011;6248;49.812;6.620;2022-12-15T07:34:43;19.73;;;12.83;;
12367;SDS011;6248;49.812;6.620;2022-12-15T07:37:11;21.43;;;12.17;;
12367;SDS011;6248;49.812;6.620;2022-12-15T07:39:38;24.10;;;14.27;;
12367;SDS011;6248;49.812;6.620;2022-12-15T07:42:05;22.00;;;13.43;;
12367;SDS011;6248;49.812;6.620;2022-12-15T07:44:32;25.30;;;13.53;;
12367;SDS011;6248;49.812;6.620;2022-12-15T07:46:59;21.50;;;14.40;;
12367;SDS011;6248;49.812;6.620;2022-12-15T07:49:26;22.33;;;13.27;;
12367;SDS011;6248;49.812;6.620;2022-12-15T07:51:55;24.17;;;14.93;;
12367;SDS011;6248;49.812;6.620;2022-12-15T07:54:22;22.07;;;13.87;;
12367;SDS011;6248;49.812;6.620;2022-12-15T07:56:50;23.30;;;14.37;;
12367;SDS011;6248;49.812;6.620;2022-12-15T07:59:17;24.73;;;14.93;;
12367;SDS011;6248;49.812;6.620;2022-12-15T08:01:44;19.83;;;13.40;;
12367;SDS011;6248;49.812;6.620;2022-12-15T08:04:11;23.03;;;14.40;;
12367;SDS011;6248;49.812;6.620;2022-12-15T08:06:38;19.10;;;13.13;;
12367;SDS011;6248;49.812;6.620;2022-12-15T08:09:08;18.60;;;12.60;;
12367;SDS011;6248;49.812;6.620;2022-12-15T08:11:36;20.07;;;13.60;;
12367;SDS011;6248;49.812;6.620;2022-12-15T08:14:03;20.27;;;12.73;;
12367;SDS011;6248;49.812;6.620;2022-12-15T08:16:30;23.97;;;14.50;;
12367;SDS011;6248;49.812;6.620;2022-12-15T08:18:58;24.20;;;14.83;;
12367;SDS011;6248;49.812;6.620;2022-12-15T08:21:25;28.23;;;16.57;;
12367;SDS011;6248;49.812;6.620;2022-12-15T08:23:53;29.53;;;17.23;;
12367;SDS011;6248;49.812;6.620;2022-12-15T08:26:21;32.43;;;18.33;;
12367;SDS011;6248;49.812;6.620;2022-12-15T08:28:48;26.97;;;16.07;;
12367;SDS011;6248;49.812;6.620;2022-12-15T08:31:16;28.10;;;15.50;;
12367;SDS011;6248;49.812;6.620;2022-12-15T08:33:44;31.67;;;17.63;;
12367;SDS011;6248;49.812;6.620;2022-12-15T08:36:12;25.60;;;15.53;;
12367;SDS011;6248;49.812;6.620;2022-12-15T08:38:39;22.37;;;13.83;;
12367;SDS011;6248;49.812;6.620;2022-12-15T08:41:07;20.93;;;14.60;;
12367;SDS011;6248;49.812;6.620;2022-12-15T08:43:36;22.30;;;13.50;;
12367;SDS011;6248;49.812;6.620;2022-12-15T08:46:04;20.53;;;14.07;;
12367;SDS011;6248;49.812;6.620;2022-12-15T08:48:32;21.27;;;13.93;;
12367;SDS011;6248;49.812;6.620;2022-12-15T08:50:59;21.57;;;13.07;;
12367;SDS011;6248;49.812;6.620;2022-12-15T08:53:26;19.93;;;13.37;;
12367;SDS011;6248;49.812;6.620;2022-12-15T08:55:54;21.40;;;14.10;;
12367;SDS011;6248;49.812;6.620;2022-12-15T08:58:21;21.67;;;12.83;;
12367;SDS011;6248;49.812;6.620;2022-12-15T09:00:49;19.23;;;12.90;;
12367;SDS011;6248;49.812;6.620;2022-12-15T09:03:16;21.27;;;13.07;;
12367;SDS011;6248;49.812;6.620;2022-12-15T09:05:43;18.77;;;12.43;;
12367;SDS011;6248;49.812;6.620;2022-12-15T09:08:10;17.10;;;12.27;;
12367;SDS011;6248;49.812;6.620;2022-12-15T09:10:38;19.90;;;12.73;;
12367;SDS011;6248;49.812;6.620;2022-12-15T09:13:06;18.67;;;12.00;;
12367;SDS011;6248;49.812;6.620;2022-12-15T09:15:33;19.00;;;13.33;;
12367;SDS011;6248;49.812;6.620;2022-12-15T09:18:02;20.20;;;13.27;;
12367;SDS011;6248;49.812;6.620;2022-12-15T09:20:29;18.03;;;12.37;;
12367;SDS011;6248;49.812;6.620;2022-12-15T09:22:56;19.47;;;12.70;;
12367;SDS011;6248;49.812;6.620;2022-12-15T09:25:23;19.23;;;12.33;;
12367;SDS011;6248;49.812;6.620;2022-12-15T09:27:50;23.33;;;13.40;;
12367;SDS011;6248;49.812;6.620;2022-12-15T09:30:18;20.57;;;14.23;;
12367;SDS011;6248;49.812;6.620;2022-12-15T09:32:45;20.07;;;13.33;;
12367;SDS011;6248;49.812;6.620;2022-12-15T09:35:13;20.07;;;12.97;;
12367;SDS011;6248;49.812;6.620;2022-12-15T09:37:41;18.47;;;12.80;;
12367;SDS011;6248;49.812;6.620;2022-12-15T09:40:09;18.23;;;12.03;;
12367;SDS011;6248;49.812;6.620;2022-12-15T09:42:37;17.10;;;12.03;;
12367;SDS011;6248;49.812;6.620;2022-12-15T09:45:06;17.97;;;11.87;;
12367;SDS011;6248;49.812;6.620;2022-12-15T09:47:38;18.47;;;12.50;;
12367;SDS011;6248;49.812;6.620;2022-12-15T09:50:08;19.67;;;12.90;;
12367;SDS011;6248;49.812;6.620;2022-12-15T09:52:40;23.60;;;14.27;;
12367;SDS011;6248;49.812;6.620;2022-12-15T09:55:14;20.10;;;13.67;;
12367;SDS011;6248;49.812;6.620;2022-12-15T09:57:43;19.67;;;12.93;;
12367;SDS011;6248;49.812;6.620;2022-12-15T10:00:13;19.93;;;12.63;;
12367;SDS011;6248;49.812;6.620;2022-12-15T10:05:33;18.13;;;13.00;;
12367;SDS011;6248;49.812;6.620;2022-12-15T10:08:11;17.53;;;12.10;;
12367;SDS011;6248;49.812;6.620;2022-12-15T10:10:39;17.67;;;12.43;;
12367;SDS011;6248;49.812;6.620;2022-12-15T10:13:08;18.70;;;12.60;;
12367;SDS011;6248;49.812;6.620;2022-12-15T10:15:37;18.80;;;13.03;;
12367;SDS011;6248;49.812;6.620;2022-12-15T10:18:09;19.43;;;13.40;;
12367;SDS011;6248;49.812;6.620;2022-12-15T10:20:41;21.73;;;13.37;;
12367;SDS011;6248;49.812;6.620;2022-12-15T10:23:11;19.70;;;13.90;;
12367;SDS011;6248;49.812;6.620;2022-12-15T10:25:38;20.97;;;14.27;;
12367;SDS011;6248;49.812;6.620;2022-12-15T10:28:15;18.80;;;12.80;;
12367;SDS011;6248;49.812;6.620;2022-12-15T10:30:49;20.13;;;13.40;;
12367;SDS011;6248;49.812;6.620;2022-12-15T10:33:17;19.27;;;12.93;;
12367;SDS011;6248;49.812;6.620;2022-12-15T10:35:46;22.77;;;14.47;;
12367;SDS011;6248;49.812;6.620;2022-12-15T10:38:18;20.63;;;14.03;;
12367;SDS011;6248;49.812;6.620;2022-12-15T10:40:48;18.30;;;13.20;;
12367;SDS011;6248;49.812;6.620;2022-12-15T10:43:22;18.00;;;13.30;;
12367;SDS011;6248;49.812;6.620;2022-12-15T10:45:51;18.77;;;13.40;;
12367;SDS011;6248;49.812;6.620;2022-12-15T10:48:25;20.63;;;13.73;;
12367;SDS011;6248;49.812;6.620;2022-12-15T10:50:56;20.20;;;14.17;;
12367;SDS011;6248;49.812;6.620;2022-12-15T10:53:37;23.43;;;15.67;;
12367;SDS011;6248;49.812;6.620;2022-12-15T10:56:05;23.73;;;16.63;;
12367;SDS011;6248;49.812;6.620;2022-12-15T10:58:43;26.30;;;18.23;;
12367;SDS011;6248;49.812;6.620;2022-12-15T11:01:13;20.47;;;14.63;;
12367;SDS011;6248;49.812;6.620;2022-12-15T11:03:41;27.30;;;18.73;;
12367;SDS011;6248;49.812;6.620;2022-12-15T11:06:13;20.07;;;13.77;;
12367;SDS011;6248;49.812;6.620;2022-12-15T11:08:42;19.47;;;13.93;;
12367;SDS011;6248;49.812;6.620;2022-12-15T11:11:24;20.73;;;14.87;;
12367;SDS011;6248;49.812;6.620;2022-12-15T11:14:11;20.70;;;14.97;;
12367;SDS011;6248;49.812;6.620;2022-12-15T11:16:42;22.27;;;15.90;;
12367;SDS011;6248;49.812;6.620;2022-12-15T11:19:12;20.93;;;15.47;;
12367;SDS011;6248;49.812;6.620;2022-12-15T11:21:40;22.20;;;15.17;;
12367;SDS011;6248;49.812;6.620;2022-12-15T11:24:12;21.17;;;14.23;;
12367;SDS011;6248;49.812;6.620;2022-12-15T11:26:45;24.33;;;15.60;;
12367;SDS011;6248;49.812;6.620;2022-12-15T11:29:23;21.53;;;15.10;;
12367;SDS011;6248;49.812;6.620;2022-12-15T11:31:53;24.10;;;16.40;;
12367;SDS011;6248;49.812;6.620;2022-12-15T11:34:21;24.13;;;15.90;;
12367;SDS011;6248;49.812;6.620;2022-12-15T11:36:52;23.03;;;15.50;;
12367;SDS011;6248;49.812;6.620;2022-12-15T11:39:27;23.80;;;16.33;;
12367;SDS011;6248;49.812;6.620;2022-12-15T11:41:59;22.80;;;15.83;;
12367;SDS011;6248;49.812;6.620;2022-12-15T11:44:29;23.87;;;15.57;;
12367;SDS011;6248;49.812;6.620;2022-12-15T11:47:04;22.20;;;15.63;;
12367;SDS011;6248;49.812;6.620;2022-12-15T11:49:43;21.67;;;14.77;;
12367;SDS011;6248;49.812;6.620;2022-12-15T11:52:15;23.83;;;17.53;;
12367;SDS011;6248;49.812;6.620;2022-12-15T11:54:49;23.93;;;16.27;;
12367;SDS011;6248;49.812;6.620;2022-12-15T11:57:23;26.63;;;16.97;;
12367;SDS011;6248;49.812;6.620;2022-12-15T12:00:01;25.37;;;16.70;;
12367;SDS011;6248;49.812;6.620;2022-12-15T12:02:42;23.13;;;15.10;;
12367;SDS011;6248;49.812;6.620;2022-12-15T12:05:16;22.83;;;16.33;;
12367;SDS011;6248;49.812;6.620;2022-12-15T12:07:46;24.50;;;16.20;;
12367;SDS011;6248;49.812;6.620;2022-12-15T12:10:20;24.70;;;15.80;;
12367;SDS011;6248;49.812;6.620;2022-12-15T12:12:51;23.50;;;16.10;;
12367;SDS011;6248;49.812;6.620;2022-12-15T12:15:23;21.93;;;14.40;;
12367;SDS011;6248;49.812;6.620;2022-12-15T12:17:54;23.07;;;15.13;;
12367;SDS011;6248;49.812;6.620;2022-12-15T12:20:25;23.93;;;16.10;;
12367;SDS011;6248;49.812;6.620;2022-12-15T12:22:55;21.03;;;14.50;;
12367;SDS011;6248;49.812;6.620;2022-12-15T12:25:27;26.33;;;15.50;;
12367;SDS011;6248;49.812;6.620;2022-12-15T12:27:57;20.77;;;15.03;;
12367;SDS011;6248;49.812;6.620;2022-12-15T12:30:27;21.27;;;14.63;;
12367;SDS011;6248;49.812;6.620;2022-12-15T12:32:57;21.40;;;14.60;;
12367;SDS011;6248;49.812;6.620;2022-12-15T12:35:27;22.57;;;14.60;;
12367;SDS011;6248;49.812;6.620;2022-12-15T12:37:58;21.10;;;14.23;;
12367;SDS011;6248;49.812;6.620;2022-12-15T12:40:27;20.33;;;14.80;;
12367;SDS011;6248;49.812;6.620;2022-12-15T12:42:57;20.17;;;13.63;;
12367;SDS011;6248;49.812;6.620;2022-12-15T12:45:26;21.47;;;14.30;;
12367;SDS011;6248;49.812;6.620;2022-12-15T12:47:55;19.17;;;13.57;;
12367;SDS011;6248;49.812;6.620;2022-12-15T12:50:24;22.60;;;14.53;;
12367;SDS011;6248;49.812;6.620;2022-12-15T12:52:53;19.97;;;13.97;;
12367;SDS011;6248;49.812;6.620;2022-12-15T12:55:23;22.47;;;14.80;;
12367;SDS011;6248;49.812;6.620;2022-12-15T12:57:51;21.13;;;14.43;;
12367;SDS011;6248;49.812;6.620;2022-12-15T13:00:22;20.30;;;14.40;;
12367;SDS011;6248;49.812;6.620;2022-12-15T13:05:42;21.23;;;14.37;;
12367;SDS011;6248;49.812;6.620;2022-12-15T13:13:57;24.27;;;14.70;;
12367;SDS011;6248;49.812;6.620;2022-12-15T13:16:26;25.37;;;15.60;;
12367;SDS011;6248;49.812;6.620;2022-12-15T13:18:55;23.27;;;16.10;;
12367;SDS011;6248;49.812;6.620;2022-12-15T13:24:15;22.73;;;15.40;;
12367;SDS011;6248;49.812;6.620;2022-12-15T13:26:44;23.23;;;14.30;;
12367;SDS011;6248;49.812;6.620;2022-12-15T13:29:11;22.43;;;14.50;;
12367;SDS011;6248;49.812;6.620;2022-12-15T13:31:44;21.60;;;14.57;;
12367;SDS011;6248;49.812;6.620;2022-12-15T13:34:14;25.00;;;15.27;;
12367;SDS011;6248;49.812;6.620;2022-12-15T13:36:42;21.43;;;14.33;;
12367;SDS011;6248;49.812;6.620;2022-12-15T13:44:34;26.33;;;17.40;;
12367;SDS011;6248;49.812;6.620;2022-12-15T13:47:08;24.23;;;16.73;;
12367;SDS011;6248;49.812;6.620;2022-12-15T13:49:37;25.70;;;17.93;;
12367;SDS011;6248;49.812;6.620;2022-12-15T13:52:09;20.13;;;14.30;;
12367;SDS011;6248;49.812;6.620;2022-12-15T13:54:38;23.27;;;15.30;;
12367;SDS011;6248;49.812;6.620;2022-12-15T13:57:08;22.40;;;15.60;;
12367;SDS011;6248;49.812;6.620;2022-12-15T13:59:38;20.90;;;14.97;;
12367;SDS011;6248;49.812;6.620;2022-12-15T14:05:03;22.60;;;15.80;;
12367;SDS011;6248;49.812;6.620;2022-12-15T14:07:31;24.27;;;16.17;;
12367;SDS011;6248;49.812;6.620;2022-12-15T14:09:59;24.83;;;17.53;;
12367;SDS011;6248;49.812;6.620;2022-12-15T14:12:26;22.97;;;16.57;;
12367;SDS011;6248;49.812;6.620;2022-12-15T14:14:55;23.47;;;16.17;;
12367;SDS011;6248;49.812;6.620;2022-12-15T14:17:22;25.53;;;16.17;;
12367;SDS011;6248;49.812;6.620;2022-12-15T14:19:49;23.47;;;16.03;;
12367;SDS011;6248;49.812;6.620;2022-12-15T14:22:19;19.93;;;14.60;;
12367;SDS011;6248;49.812;6.620;2022-12-15T14:24:48;20.37;;;14.43;;
12367;SDS011;6248;49.812;6.620;2022-12-15T14:27:22;25.83;;;17.80;;
12367;SDS011;6248;49.812;6.620;2022-12-15T14:32:33;21.60;;;15.20;;
12367;SDS011;6248;49.812;6.620;2022-12-15T14:35:00;20.20;;;14.40;;
12367;SDS011;6248;49.812;6.620;2022-12-15T14:37:29;19.30;;;13.80;;
12367;SDS011;6248;49.812;6.620;2022-12-15T14:39:56;21.13;;;13.70;;
12367;SDS011;6248;49.812;6.620;2022-12-15T14:42:25;18.83;;;13.80;;
12367;SDS011;6248;49.812;6.620;2022-12-15T14:44:53;25.03;;;15.20;;
12367;SDS011;6248;49.812;6.620;2022-12-15T14:47:22;21.27;;;14.37;;
12367;SDS011;6248;49.812;6.620;2022-12-15T14:49:51;20.57;;;14.43;;
12367;SDS011;6248;49.812;6.620;2022-12-15T14:52:24;19.57;;;14.13;;
12367;SDS011;6248;49.812;6.620;2022-12-15T14:54:54;21.60;;;14.17;;
12367;SDS011;6248;49.812;6.620;2022-12-15T14:57:22;25.37;;;15.40;;
12367;SDS011;6248;49.812;6.620;2022-12-15T14:59:50;24.20;;;15.27;;
12367;SDS011;6248;49.812;6.620;2022-12-15T15:02:19;23.03;;;14.53;;
12367;SDS011;6248;49.812;6.620;2022-12-15T15:04:53;23.37;;;14.10;;
12367;SDS011;6248;49.812;6.620;2022-12-15T15:07:22;20.50;;;13.33;;
12367;SDS011;6248;49.812;6.620;2022-12-15T15:09:50;20.00;;;12.53;;
12367;SDS011;6248;49.812;6.620;2022-12-15T15:12:20;19.17;;;12.73;;
12367;SDS011;6248;49.812;6.620;2022-12-15T15:14:48;17.37;;;12.43;;
12367;SDS011;6248;49.812;6.620;2022-12-15T15:17:22;16.57;;;11.33;;
12367;SDS011;6248;49.812;6.620;2022-12-15T15:19:51;16.87;;;11.17;;
12367;SDS011;6248;49.812;6.620;2022-12-15T15:25:26;16.90;;;10.63;;
12367;SDS011;6248;49.812;6.620;2022-12-15T15:28:02;17.33;;;11.03;;
12367;SDS011;6248;49.812;6.620;2022-12-15T15:30:38;15.83;;;10.40;;
12367;SDS011;6248;49.812;6.620;2022-12-15T15:33:07;16.60;;;11.47;;
12367;SDS011;6248;49.812;6.620;2022-12-15T15:35:34;17.87;;;11.47;;